Denison, IA (51442)

3:06 PM CDT on March 23, 2017 (GMT -0500)
Uptown Denison | | Change Station

Elev 1273 ft 42.02 °N, 95.35 °W | Updated 15 seconds ago

Haze
Haze
56.5 °F
Feels Like 56.5 °F
N
9.0
Wind Variable Wind from SSE

Today
High -- | Low -- °F
--% Chance of Precip.
Yesterday
High -- | Low -- °F
Precip. -- in
Pressure 29.81 in
Visibility 6.0 miles
Clouds Mostly Cloudy 4300 ft
Mostly Cloudy 5500 ft
Mostly Cloudy 9000 ft
Dew Point 45 °F
Humidity 65%
Rainfall 0.00 in
Snow Depth Not available.
7:19 AM 7:37 PM
Waning Crescent, 21% visible
METAR KDNS 231955Z AUTO 16008G15KT 6SM HZ BKN043 BKN055 BKN090 14/06 A2981 RMK AO2
Pressure 29.81 in
Visibility 6.0 miles
Clouds Mostly Cloudy 4300 ft
Mostly Cloudy 5500 ft
Mostly Cloudy 9000 ft
Dew Point 45 °F
Humidity 65%
Rainfall 0.00 in
Snow Depth Not available.
7:19 AM 7:37 PM
Waning Crescent, 21% visible
METAR KDNS 231955Z AUTO 16008G15KT 6SM HZ BKN043 BKN055 BKN090 14/06 A2981 RMK AO2

Get Severe Weather Alerts

Thanks for signing up!

Be on the lookout for a verification email in your inbox.

You'll start receiving the daily forecast at 8 AM.

×

10-Day Weather Forecast

Almanac

Astronomy

Mar. 23, 2017 Rise Set
Actual Time
Civil Twilight
Nautical Twilight
Astronomical Twilight
Moon
Length of Visible Light
Length of Day
Tomorrow will be .
, % of the Moon is Illuminated

Today's Extremes

State Highs State Lows

Community

WunderPhotos

Upload Photos

1,962,540 photos uploaded!

WunderBlog® & News

Nearby

Air Quality

  Air Quality AQ Index Pollutant
Not available.

Snow Depth

Station Depth Elevation

Earthquake Activity

City Distance Mag. Time & Date
Minimum magnitude displayed is 2.5.

Earthquake Activity

City Distance Mag. Time & Date
Minimum magnitude displayed is 2.5.

Coastal Water Temperatures

Place Temperature

Stations

Nearby Weather Stations

Station Location Temp. Windchill Dew Point Humidity Wind Precip. Elev Updated Type
                   

Watches & Warnings

There are currently no watches in effect.